Time;durP1;ratioP1;P1;durP2;ratioP2;P2;SDS_P1;SDS_P2;PMS_P1;PMS_P2;Temp;Humidity;BMP_temperature;BMP_pressure;BME280_temperature;BME280_humidity;BME280_pressure;Samples;Min_cycle;Max_cycle;Signal;HPM_P1;HPM_P2
2023/12/31 00:01:38;;;;;;;3.35;1.83;;;9.30;94.10;;;;;;5052481;28;20020;-32
2023/12/31 00:04:03;;;;;;;3.03;1.65;;;9.30;94.10;;;;;;5052470;28;20024;-31
2023/12/31 00:06:29;;;;;;;2.78;1.40;;;9.40;94.00;;;;;;5052520;28;20021;-37
2023/12/31 00:08:55;;;;;;;3.72;1.40;;;9.40;93.90;;;;;;5052733;28;20117;-42
2023/12/31 00:11:21;;;;;;;2.00;1.70;;;9.40;93.90;;;;;;5052614;28;20094;-31
2023/12/31 00:13:47;;;;;;;2.60;1.75;;;9.40;94.10;;;;;;5052294;28;20032;-36
2023/12/31 00:16:14;;;;;;;2.15;1.40;;;9.40;94.20;;;;;;5034457;28;20033;-36
2023/12/31 00:18:39;;;;;;;2.75;1.63;;;9.40;94.20;;;;;;5052356;28;20099;-33
2023/12/31 00:21:08;;;;;;;6.13;1.75;;;9.40;94.20;;;;;;5052084;28;20115;-35
2023/12/31 00:23:34;;;;;;;2.75;1.40;;;9.40;94.20;;;;;;5052255;28;20496;-34
2023/12/31 00:26:00;;;;;;;2.95;1.50;;;9.40;94.10;;;;;;5050833;28;20029;-34
2023/12/31 00:28:25;;;;;;;4.35;1.35;;;9.40;94.20;;;;;;5051989;28;20032;-38
2023/12/31 00:30:51;;;;;;;3.35;1.35;;;9.40;94.30;;;;;;5052439;28;20032;-39
2023/12/31 00:33:16;;;;;;;1.65;1.20;;;9.40;94.40;;;;;;5051905;28;20056;-36
2023/12/31 00:35:42;;;;;;;1.50;1.20;;;9.40;94.40;;;;;;5052001;28;20032;-37
2023/12/31 00:38:08;;;;;;;3.67;1.10;;;9.50;94.60;;;;;;5052135;28;20027;-34
2023/12/31 00:40:33;;;;;;;1.95;1.05;;;9.50;94.40;;;;;;5051978;28;20025;-37
2023/12/31 00:42:59;;;;;;;2.08;1.10;;;9.60;94.30;;;;;;5052172;28;20450;-32
2023/12/31 00:45:24;;;;;;;1.27;1.00;;;9.60;94.20;;;;;;5051811;28;20028;-35
2023/12/31 00:47:50;;;;;;;2.30;1.20;;;9.60;94.20;;;;;;5051981;28;20021;-35
2023/12/31 00:50:15;;;;;;;1.63;0.80;;;9.60;94.10;;;;;;5052134;28;20117;-35
2023/12/31 00:52:41;;;;;;;1.25;0.80;;;9.70;94.10;;;;;;5051719;28;20029;-36
2023/12/31 00:55:07;;;;;;;1.98;1.08;;;9.70;93.90;;;;;;5051870;28;20485;-32
2023/12/31 00:57:32;;;;;;;2.08;1.02;;;9.70;93.90;;;;;;5050329;28;20021;-35
2023/12/31 00:59:58;;;;;;;1.38;1.10;;;9.70;94.20;;;;;;5052040;28;20025;-34
2023/12/31 01:02:24;;;;;;;0.70;0.70;;;9.70;93.90;;;;;;5051050;28;20477;-33
2023/12/31 01:04:49;;;;;;;1.05;0.80;;;9.70;93.80;;;;;;5051467;28;20028;-38
2023/12/31 01:07:15;;;;;;;1.77;0.75;;;9.70;93.70;;;;;;5051964;28;20120;-32
2023/12/31 01:09:41;;;;;;;1.35;0.90;;;9.70;93.70;;;;;;5051894;28;20368;-34
2023/12/31 01:12:07;;;;;;;0.88;0.77;;;9.70;93.60;;;;;;5051659;28;20025;-35
2023/12/31 01:14:35;;;;;;;2.15;1.10;;;9.80;93.60;;;;;;5051559;28;20029;-36
2023/12/31 01:17:01;;;;;;;1.50;1.10;;;9.70;93.70;;;;;;5051769;28;20025;-33
2023/12/31 01:19:26;;;;;;;1.50;0.85;;;9.70;93.80;;;;;;5051833;28;20056;-32
2023/12/31 01:21:52;;;;;;;0.93;0.90;;;9.70;93.90;;;;;;5051540;28;20020;-32
2023/12/31 01:24:18;;;;;;;2.53;1.00;;;9.80;93.90;;;;;;5051345;28;20024;-32
2023/12/31 01:26:43;;;;;;;2.33;1.13;;;9.80;93.90;;;;;;5051653;28;20026;-40
2023/12/31 01:29:09;;;;;;;4.43;2.25;;;9.80;93.80;;;;;;5051472;28;20021;-45
2023/12/31 01:31:34;;;;;;;15.82;7.07;;;9.80;94.10;;;;;;5051313;28;20536;-35
2023/12/31 01:34:00;;;;;;;16.42;7.85;;;9.80;94.20;;;;;;5049879;28;20049;-34
2023/12/31 01:36:25;;;;;;;16.52;7.20;;;9.80;94.20;;;;;;5051362;28;20036;-33
2023/12/31 01:38:51;;;;;;;11.23;5.38;;;9.80;94.20;;;;;;5051616;28;20028;-32
2023/12/31 01:41:17;;;;;;;7.30;3.25;;;9.80;94.20;;;;;;5051486;28;20021;-34
2023/12/31 01:43:42;;;;;;;9.32;3.83;;;9.80;94.20;;;;;;5051296;28;20078;-34
2023/12/31 01:46:10;;;;;;;7.60;3.45;;;9.80;94.30;;;;;;5051117;28;20096;-33
2023/12/31 01:48:36;;;;;;;8.35;4.45;;;9.80;94.30;;;;;;5051162;28;20112;-35
2023/12/31 01:51:03;;;;;;;8.55;4.05;;;9.70;94.30;;;;;;5051563;28;20151;-32
2023/12/31 01:53:30;;;;;;;5.53;2.80;;;9.80;94.50;;;;;;5051512;28;20040;-37
2023/12/31 01:55:57;;;;;;;3.83;2.00;;;9.70;94.60;;;;;;5051149;28;20237;-33
2023/12/31 01:58:22;;;;;;;3.72;1.90;;;9.70;94.60;;;;;;5051113;28;20056;-32
2023/12/31 02:00:49;;;;;;;2.55;1.38;;;9.70;94.60;;;;;;5049378;28;20025;-40
2023/12/31 02:03:15;;;;;;;2.72;1.38;;;9.70;94.60;;;;;;5050709;28;20063;-35
2023/12/31 02:05:41;;;;;;;2.58;1.50;;;9.60;94.70;;;;;;5049575;28;20110;-41
2023/12/31 02:08:07;;;;;;;2.65;1.30;;;9.60;94.70;;;;;;5051267;28;20043;-34
2023/12/31 02:10:33;;;;;;;1.98;1.38;;;9.60;94.70;;;;;;5050883;28;20021;-35
2023/12/31 02:13:00;;;;;;;1.08;0.98;;;9.60;94.70;;;;;;5052100;28;20535;-32
2023/12/31 02:15:32;;;;;;;1.58;1.25;;;9.60;94.70;;;;;;5054569;28;20029;-32
2023/12/31 02:18:00;;;;;;;2.70;1.50;;;9.50;94.60;;;;;;5053294;28;20066;-31
2023/12/31 02:20:26;;;;;;;1.73;0.90;;;9.60;94.70;;;;;;5054768;28;20112;-33
2023/12/31 02:22:52;;;;;;;2.47;1.40;;;9.50;94.60;;;;;;5054501;28;20067;-35
2023/12/31 02:25:22;;;;;;;2.97;1.48;;;9.50;94.90;;;;;;5055073;28;20017;-31
2023/12/31 02:27:48;;;;;;;3.95;1.30;;;9.60;95.00;;;;;;5054546;28;20017;-32
2023/12/31 02:30:14;;;;;;;1.60;1.33;;;9.60;95.10;;;;;;5054614;28;20539;-33
2023/12/31 02:32:39;;;;;;;1.27;1.17;;;9.50;95.00;;;;;;5054183;28;20103;-32
2023/12/31 02:35:05;;;;;;;1.60;1.10;;;9.50;95.00;;;;;;5054264;28;20029;-36
2023/12/31 02:37:31;;;;;;;1.58;1.23;;;9.50;95.00;;;;;;5054269;28;20036;-36
2023/12/31 02:39:56;;;;;;;1.65;1.00;;;9.50;94.90;;;;;;5054283;28;20454;-35
2023/12/31 02:42:22;;;;;;;1.35;1.02;;;9.50;94.90;;;;;;5054144;28;20488;-34
2023/12/31 02:44:48;;;;;;;1.25;1.00;;;9.40;94.70;;;;;;5054222;28;20496;-32
2023/12/31 02:47:14;;;;;;;1.33;1.23;;;9.40;94.70;;;;;;5054181;28;20033;-32
2023/12/31 02:49:40;;;;;;;2.42;1.30;;;9.40;94.70;;;;;;5054077;28;20025;-32
2023/12/31 02:52:06;;;;;;;1.63;1.20;;;9.40;94.60;;;;;;5053948;28;20515;-35
2023/12/31 02:54:31;;;;;;;1.30;1.00;;;9.40;94.60;;;;;;5054114;28;20380;-35
2023/12/31 02:56:57;;;;;;;1.30;1.20;;;9.40;94.60;;;;;;5054095;28;20024;-34
2023/12/31 02:59:23;;;;;;;1.63;1.10;;;9.40;94.60;;;;;;5054224;28;20469;-36
2023/12/31 03:01:50;;;;;;;2.47;1.20;;;9.50;94.70;;;;;;5053632;28;20071;-32
2023/12/31 03:04:16;;;;;;;1.10;1.00;;;9.50;94.70;;;;;;5053703;28;20027;-32
2023/12/31 03:06:41;;;;;;;2.05;1.20;;;9.50;94.70;;;;;;5053740;28;20017;-33
2023/12/31 03:09:07;;;;;;;3.28;1.30;;;9.40;94.90;;;;;;5053711;28;20025;-32
2023/12/31 03:11:33;;;;;;;2.58;1.25;;;9.50;95.10;;;;;;5053681;28;20029;-32
2023/12/31 03:14:00;;;;;;;1.83;1.15;;;9.50;95.20;;;;;;5053826;28;20543;-34
2023/12/31 03:16:26;;;;;;;1.25;1.13;;;9.50;95.20;;;;;;5053561;28;20452;-33
2023/12/31 03:18:54;;;;;;;1.50;1.40;;;9.50;95.10;;;;;;5053548;28;20100;-35
2023/12/31 03:21:20;;;;;;;1.42;1.13;;;9.40;95.10;;;;;;5053523;28;20037;-32
2023/12/31 03:23:46;;;;;;;1.85;1.40;;;9.40;95.10;;;;;;5053613;28;20098;-35
2023/12/31 03:26:12;;;;;;;2.35;1.30;;;9.40;95.20;;;;;;5052930;28;20455;-34
2023/12/31 03:28:38;;;;;;;1.98;1.40;;;9.40;95.40;;;;;;5053560;28;20096;-32
2023/12/31 03:31:03;;;;;;;2.10;1.25;;;9.50;95.60;;;;;;5053239;28;20095;-36
2023/12/31 03:33:32;;;;;;;1.65;1.10;;;9.40;95.70;;;;;;5053143;28;20124;-32
2023/12/31 03:35:57;;;;;;;2.00;1.23;;;9.50;95.70;;;;;;5053184;28;20481;-32
2023/12/31 03:38:23;;;;;;;3.15;1.40;;;9.50;95.70;;;;;;5053219;28;20029;-34
2023/12/31 03:40:49;;;;;;;2.45;1.38;;;9.40;95.70;;;;;;5053016;28;20040;-33
2023/12/31 03:43:14;;;;;;;1.38;1.20;;;9.40;95.80;;;;;;5053069;28;20062;-36
2023/12/31 03:45:40;;;;;;;1.70;1.30;;;9.50;95.90;;;;;;5053007;28;20021;-31
2023/12/31 03:48:06;;;;;;;1.05;0.95;;;9.50;95.90;;;;;;5052968;28;20020;-39
2023/12/31 03:50:31;;;;;;;1.30;1.20;;;9.50;95.90;;;;;;5052955;28;20452;-34
2023/12/31 03:52:57;;;;;;;2.13;1.10;;;9.50;95.90;;;;;;5053157;28;20017;-33
2023/12/31 03:55:23;;;;;;;1.35;1.25;;;9.50;95.90;;;;;;5052608;28;20480;-35
2023/12/31 03:57:49;;;;;;;2.38;1.00;;;9.50;96.00;;;;;;5052878;28;20021;-32
2023/12/31 04:00:15;;;;;;;1.40;1.05;;;9.50;96.00;;;;;;5052960;28;20027;-37
2023/12/31 04:02:40;;;;;;;1.83;1.30;;;9.50;96.00;;;;;;5052745;28;20374;-38
2023/12/31 04:05:06;;;;;;;1.33;1.10;;;9.50;96.00;;;;;;5052627;28;20045;-33
2023/12/31 04:07:32;;;;;;;1.20;1.10;;;9.40;96.10;;;;;;5052902;28;20013;-33
2023/12/31 04:09:57;;;;;;;1.95;1.10;;;9.50;96.20;;;;;;5052571;28;20020;-33
2023/12/31 04:12:23;;;;;;;1.83;1.27;;;9.40;96.20;;;;;;5052482;28;20081;-34
2023/12/31 04:14:48;;;;;;;1.85;1.20;;;9.40;96.30;;;;;;5052363;28;20493;-35
2023/12/31 04:17:14;;;;;;;2.15;1.00;;;9.40;96.40;;;;;;5052397;28;20067;-38
2023/12/31 04:19:40;;;;;;;1.20;1.10;;;9.40;96.50;;;;;;5052409;28;20036;-33
2023/12/31 04:22:05;;;;;;;4.93;1.60;;;9.40;96.60;;;;;;5052067;28;20070;-35
2023/12/31 04:24:31;;;;;;;1.70;1.25;;;9.40;96.60;;;;;;5052376;28;20025;-35
2023/12/31 04:26:57;;;;;;;1.83;1.30;;;9.40;96.70;;;;;;5052034;28;20063;-37
2023/12/31 04:29:23;;;;;;;1.95;1.35;;;9.40;96.80;;;;;;5052567;28;20357;-38
2023/12/31 04:31:48;;;;;;;2.25;1.15;;;9.40;96.90;;;;;;5050880;28;20033;-31
2023/12/31 04:34:14;;;;;;;2.33;1.40;;;9.40;97.10;;;;;;5051898;28;20068;-35
2023/12/31 04:36:46;;;;;;;3.33;1.48;;;9.40;97.10;;;;;;5051976;28;20029;-37
2023/12/31 04:39:12;;;;;;;1.48;1.20;;;9.50;97.20;;;;;;5052281;28;20036;-40
2023/12/31 04:41:38;;;;;;;2.95;1.40;;;9.40;97.30;;;;;;5052130;28;20025;-38
2023/12/31 04:44:04;;;;;;;2.00;1.25;;;9.50;97.50;;;;;;5052108;28;20017;-38
2023/12/31 04:46:29;;;;;;;1.48;1.38;;;9.50;97.60;;;;;;5052201;28;20104;-35
2023/12/31 04:48:55;;;;;;;2.28;1.58;;;9.50;97.90;;;;;;5051941;28;20017;-40
2023/12/31 04:51:29;;;;;;;1.77;1.40;;;9.50;97.90;;;;;;5052120;28;20067;-37
2023/12/31 04:53:56;;;;;;;1.98;1.58;;;9.50;98.00;;;;;;5051938;28;20027;-35
2023/12/31 04:56:23;;;;;;;1.58;1.30;;;9.50;98.00;;;;;;5051855;28;20035;-30
2023/12/31 04:58:50;;;;;;;1.95;1.40;;;9.50;98.00;;;;;;5051659;28;20025;-32
2023/12/31 05:01:16;;;;;;;1.98;1.20;;;9.50;98.10;;;;;;5051505;28;20028;-37
2023/12/31 05:03:43;;;;;;;1.98;1.45;;;9.60;98.10;;;;;;5051644;28;20017;-31
2023/12/31 05:06:10;;;;;;;2.40;1.77;;;9.50;98.00;;;;;;5051433;28;20025;-34
2023/12/31 05:08:35;;;;;;;2.40;1.65;;;9.50;98.20;;;;;;5051955;28;20513;-34
2023/12/31 05:11:02;;;;;;;2.30;1.88;;;9.50;98.30;;;;;;5051705;28;20026;-34
2023/12/31 05:13:28;;;;;;;3.85;1.90;;;9.50;98.20;;;;;;5051800;28;20109;-31
2023/12/31 05:15:53;;;;;;;2.20;1.70;;;9.50;98.30;;;;;;5051746;28;20049;-34
2023/12/31 05:18:19;;;;;;;1.65;1.55;;;9.50;98.40;;;;;;5051715;28;20053;-32
2023/12/31 05:20:44;;;;;;;2.97;1.48;;;9.50;98.60;;;;;;5051361;28;20040;-32
2023/12/31 05:23:10;;;;;;;2.25;1.85;;;9.50;98.40;;;;;;5051662;28;20017;-32
2023/12/31 05:25:36;;;;;;;2.55;1.95;;;9.50;98.50;;;;;;5051156;28;20052;-31
2023/12/31 05:28:01;;;;;;;2.10;1.80;;;9.50;98.60;;;;;;5051243;28;20021;-33
2023/12/31 05:30:27;;;;;;;2.78;1.70;;;9.50;98.60;;;;;;5051435;28;20024;-35
2023/12/31 05:32:52;;;;;;;3.50;2.05;;;9.40;98.60;;;;;;5051271;28;20064;-40
2023/12/31 05:35:18;;;;;;;3.03;1.45;;;9.40;98.60;;;;;;5051539;28;20025;-35
2023/12/31 05:37:43;;;;;;;1.80;1.70;;;9.40;98.80;;;;;;5051329;28;20032;-34
2023/12/31 05:40:09;;;;;;;2.13;1.77;;;9.50;98.70;;;;;;5051302;28;20024;-34
2023/12/31 05:42:35;;;;;;;1.95;1.77;;;9.40;98.80;;;;;;5051122;28;20095;-36
2023/12/31 05:45:01;;;;;;;2.75;2.22;;;9.50;99.10;;;;;;5051347;28;20021;-34
2023/12/31 05:47:26;;;;;;;3.63;2.65;;;9.50;99.00;;;;;;5051155;28;20017;-36
2023/12/31 05:49:52;;;;;;;3.70;2.30;;;9.60;99.10;;;;;;5055269;28;20029;-34
2023/12/31 05:52:17;;;;;;;3.38;2.40;;;9.60;99.20;;;;;;5055126;28;20098;-31
2023/12/31 05:54:43;;;;;;;2.60;2.40;;;9.50;99.00;;;;;;5055014;28;20032;-34
2023/12/31 05:57:08;;;;;;;5.47;2.60;;;9.60;99.00;;;;;;5055154;28;20025;-33
2023/12/31 05:59:34;;;;;;;3.28;2.50;;;9.50;99.00;;;;;;5055114;28;20435;-35
2023/12/31 06:01:59;;;;;;;3.60;2.25;;;9.60;99.00;;;;;;5054784;28;20388;-33
2023/12/31 06:04:25;;;;;;;2.85;2.55;;;9.50;99.10;;;;;;5054707;28;20025;-39
2023/12/31 06:06:51;;;;;;;3.10;2.42;;;9.60;99.20;;;;;;5054699;28;20053;-36
2023/12/31 06:09:16;;;;;;;2.60;2.30;;;9.60;99.20;;;;;;5054991;28;20032;-36
2023/12/31 06:11:42;;;;;;;2.30;2.10;;;9.60;99.20;;;;;;5054775;28;20389;-34
2023/12/31 06:14:07;;;;;;;3.90;3.00;;;9.60;99.30;;;;;;5054621;28;20025;-34
2023/12/31 06:16:33;;;;;;;4.10;2.80;;;9.70;99.40;;;;;;5054637;28;20032;-37
2023/12/31 06:18:59;;;;;;;3.22;2.72;;;9.70;99.50;;;;;;5054519;28;20029;-34
2023/12/31 06:21:24;;;;;;;4.38;2.83;;;9.70;99.40;;;;;;5054352;28;20029;-37
2023/12/31 06:23:51;;;;;;;3.67;2.72;;;9.70;99.50;;;;;;5054741;28;20021;-35
2023/12/31 06:26:16;;;;;;;3.08;2.50;;;9.70;99.50;;;;;;5054682;28;20067;-36
2023/12/31 06:28:42;;;;;;;3.72;2.90;;;9.70;99.50;;;;;;5054334;28;20049;-32
2023/12/31 06:31:09;;;;;;;4.65;3.15;;;9.70;99.40;;;;;;5054390;28;20063;-40
2023/12/31 06:33:34;;;;;;;3.20;2.22;;;9.70;99.40;;;;;;5054184;28;20057;-34
2023/12/31 06:36:00;;;;;;;3.63;2.58;;;9.70;99.50;;;;;;5054166;28;20079;-34
2023/12/31 06:38:26;;;;;;;2.92;2.58;;;9.70;99.60;;;;;;5054295;28;20056;-35
2023/12/31 06:40:51;;;;;;;3.13;2.80;;;9.70;99.50;;;;;;5054176;28;20362;-39
2023/12/31 06:43:17;;;;;;;4.05;2.90;;;9.70;99.50;;;;;;5054184;28;20032;-36
2023/12/31 06:45:42;;;;;;;4.28;3.20;;;9.70;99.50;;;;;;5053988;28;20021;-36
2023/12/31 06:48:08;;;;;;;3.35;2.90;;;9.70;99.60;;;;;;5054090;28;20499;-36
2023/12/31 06:50:34;;;;;;;3.25;2.83;;;9.70;99.50;;;;;;5053942;28;20116;-37
2023/12/31 06:52:59;;;;;;;3.08;2.70;;;9.60;99.60;;;;;;5053970;28;20021;-32
2023/12/31 06:55:25;;;;;;;3.63;2.80;;;9.60;99.60;;;;;;5053931;28;20116;-33
2023/12/31 06:57:50;;;;;;;3.40;3.10;;;9.60;99.50;;;;;;5054140;28;20021;-32
2023/12/31 07:00:16;;;;;;;3.58;2.97;;;9.60;99.50;;;;;;5052885;28;20029;-35
2023/12/31 07:02:43;;;;;;;5.72;3.00;;;9.60;99.50;;;;;;5053643;28;20025;-31
2023/12/31 07:05:09;;;;;;;2.85;2.63;;;9.60;99.50;;;;;;5053579;28;20025;-34
2023/12/31 07:07:35;;;;;;;3.83;2.75;;;9.50;99.50;;;;;;5053780;28;20024;-34
2023/12/31 07:10:03;;;;;;;3.97;2.90;;;9.60;99.50;;;;;;5053783;28;20029;-32
2023/12/31 07:12:29;;;;;;;3.05;2.65;;;9.50;99.50;;;;;;5053800;28;20029;-33
2023/12/31 07:14:54;;;;;;;3.97;3.30;;;9.50;99.50;;;;;;5053482;28;20378;-35
2023/12/31 07:17:20;;;;;;;4.45;2.80;;;9.50;99.40;;;;;;5053659;28;20036;-32
2023/12/31 07:19:45;;;;;;;3.38;3.03;;;9.50;99.50;;;;;;5053845;28;20029;-38
2023/12/31 07:22:11;;;;;;;3.25;2.90;;;9.60;99.50;;;;;;5053393;28;20025;-33
2023/12/31 07:24:37;;;;;;;3.03;2.72;;;9.50;99.40;;;;;;5053297;28;20100;-37
2023/12/31 07:27:05;;;;;;;2.53;2.33;;;9.50;99.50;;;;;;5052338;28;20021;-36
2023/12/31 07:29:30;;;;;;;3.72;2.97;;;9.50;99.50;;;;;;5053630;28;20025;-35
2023/12/31 07:31:56;;;;;;;5.53;2.92;;;9.50;99.50;;;;;;5053154;28;20112;-35
2023/12/31 07:34:22;;;;;;;3.38;3.00;;;9.50;99.50;;;;;;5053211;28;20469;-34
2023/12/31 07:36:47;;;;;;;3.45;2.80;;;9.50;99.40;;;;;;5053050;28;20066;-34
2023/12/31 07:39:13;;;;;;;3.13;2.60;;;9.50;99.40;;;;;;5053262;28;20036;-37
2023/12/31 07:41:38;;;;;;;4.82;3.10;;;9.50;99.40;;;;;;5053270;28;20118;-33
2023/12/31 07:44:04;;;;;;;3.53;2.80;;;9.50;99.50;;;;;;5053001;28;20028;-34
2023/12/31 07:46:29;;;;;;;2.90;2.60;;;9.60;99.60;;;;;;5052987;28;20025;-32
2023/12/31 07:48:56;;;;;;;4.25;2.58;;;9.60;99.60;;;;;;5052962;28;20436;-34
2023/12/31 07:51:22;;;;;;;3.10;2.72;;;9.50;99.50;;;;;;5053172;28;20039;-32
2023/12/31 07:53:47;;;;;;;4.18;2.58;;;9.60;99.50;;;;;;5052849;28;20025;-38
2023/12/31 07:56:13;;;;;;;3.95;2.90;;;9.60;99.60;;;;;;5052884;28;20488;-38
2023/12/31 07:58:38;;;;;;;4.53;3.20;;;9.60;99.60;;;;;;5052934;28;20021;-36
2023/12/31 08:01:04;;;;;;;3.65;3.13;;;9.60;99.60;;;;;;5052704;28;20115;-33
2023/12/31 08:03:30;;;;;;;4.15;3.22;;;9.60;99.70;;;;;;5052880;28;20475;-34
2023/12/31 08:05:56;;;;;;;3.97;3.25;;;9.60;99.70;;;;;;5052830;28;20021;-32
2023/12/31 08:08:22;;;;;;;4.18;3.33;;;9.60;99.60;;;;;;5051403;28;20013;-32
2023/12/31 08:10:48;;;;;;;3.38;2.58;;;9.60;99.60;;;;;;5052452;28;20032;-37
2023/12/31 08:13:13;;;;;;;3.50;2.70;;;9.60;99.60;;;;;;5052400;28;20114;-41
2023/12/31 08:15:39;;;;;;;3.45;3.15;;;9.60;99.60;;;;;;5050730;28;20078;-31
2023/12/31 08:18:05;;;;;;;3.65;3.05;;;9.60;99.70;;;;;;5052544;28;20021;-32
2023/12/31 08:20:31;;;;;;;4.30;3.25;;;9.60;99.80;;;;;;5052590;28;20025;-34
2023/12/31 08:22:58;;;;;;;4.05;3.45;;;9.60;99.80;;;;;;5052231;28;20473;-33
2023/12/31 08:25:23;;;;;;;5.63;3.40;;;9.70;99.80;;;;;;5052262;28;20020;-32
2023/12/31 08:27:49;;;;;;;4.25;3.42;;;9.70;99.80;;;;;;5052184;28;20024;-35
2023/12/31 08:30:15;;;;;;;3.55;3.08;;;9.70;99.80;;;;;;5052553;28;20020;-31
2023/12/31 08:32:40;;;;;;;4.15;3.30;;;9.70;99.80;;;;;;5052149;28;20132;-35
2023/12/31 08:35:08;;;;;;;3.63;3.08;;;9.70;99.80;;;;;;5052357;28;20025;-34
2023/12/31 08:37:34;;;;;;;4.43;3.10;;;9.70;99.90;;;;;;5052105;28;20392;-35
2023/12/31 08:39:59;;;;;;;4.75;3.10;;;9.80;99.90;;;;;;5052029;28;20108;-34
2023/12/31 08:42:25;;;;;;;4.53;3.53;;;9.80;99.90;;;;;;5051947;28;20036;-33
2023/12/31 08:44:50;;;;;;;4.10;3.25;;;9.90;99.90;;;;;;5051893;28;20021;-33
2023/12/31 08:47:16;;;;;;;3.88;3.17;;;9.90;99.90;;;;;;5052026;28;20024;-36
2023/12/31 08:49:41;;;;;;;4.53;3.28;;;10.00;99.90;;;;;;5051889;28;20071;-32
2023/12/31 08:52:07;;;;;;;4.45;3.30;;;10.00;99.90;;;;;;5051959;28;20025;-36
2023/12/31 08:54:33;;;;;;;5.38;3.47;;;10.00;99.90;;;;;;5051698;28;20021;-31
2023/12/31 08:56:59;;;;;;;3.95;3.00;;;10.00;99.90;;;;;;5051951;28;20025;-34
2023/12/31 08:59:25;;;;;;;3.83;3.10;;;10.10;99.90;;;;;;5050850;28;20074;-38
2023/12/31 09:01:51;;;;;;;4.28;3.25;;;10.10;99.90;;;;;;5051436;28;20385;-34
2023/12/31 09:04:17;;;;;;;3.80;2.97;;;10.10;99.90;;;;;;5051551;28;20070;-36
2023/12/31 09:06:43;;;;;;;4.10;3.30;;;10.20;99.90;;;;;;5051597;28;20134;-35
2023/12/31 09:09:08;;;;;;;4.68;3.25;;;10.20;99.90;;;;;;5051863;28;20100;-38
2023/12/31 09:11:34;;;;;;;3.30;2.90;;;10.20;99.70;;;;;;5051783;28;20023;-32
2023/12/31 09:14:00;;;;;;;3.40;3.10;;;10.20;99.80;;;;;;5051406;28;20048;-33
2023/12/31 09:16:26;;;;;;;4.82;2.80;;;10.20;99.80;;;;;;5051981;28;20104;-35
2023/12/31 09:18:51;;;;;;;4.40;3.17;;;10.20;99.80;;;;;;5051483;28;20033;-34
2023/12/31 09:21:17;;;;;;;3.22;2.85;;;10.30;99.60;;;;;;5051377;28;20033;-32
2023/12/31 09:23:42;;;;;;;4.15;3.33;;;10.30;99.60;;;;;;5053764;28;20163;-34
2023/12/31 09:26:08;;;;;;;5.03;3.65;;;10.30;99.50;;;;;;5055617;28;20024;-34
2023/12/31 09:28:34;;;;;;;3.85;3.25;;;10.30;99.40;;;;;;5055663;28;20576;-36
2023/12/31 09:30:59;;;;;;;3.80;3.30;;;10.40;99.30;;;;;;5054272;28;20033;-34
2023/12/31 09:33:25;;;;;;;5.22;3.65;;;10.40;99.20;;;;;;5055354;28;20037;-33
2023/12/31 09:35:50;;;;;;;5.78;3.65;;;10.40;99.10;;;;;;5054010;28;20029;-33
2023/12/31 09:38:16;;;;;;;4.85;3.55;;;10.40;99.00;;;;;;5055497;28;20017;-33
2023/12/31 09:40:42;;;;;;;3.13;2.70;;;10.50;99.10;;;;;;5055421;28;20025;-32
2023/12/31 09:43:10;;;;;;;3.25;2.65;;;10.50;99.00;;;;;;5055502;28;20519;-32
2023/12/31 09:45:35;;;;;;;4.65;2.65;;;10.50;98.90;;;;;;5055373;28;20021;-36
2023/12/31 09:48:02;;;;;;;3.75;2.70;;;10.60;99.40;;;;;;5055628;28;20303;-33
2023/12/31 09:50:30;;;;;;;2.70;2.45;;;10.60;99.20;;;;;;5055456;28;20096;-31
2023/12/31 09:52:57;;;;;;;5.47;3.15;;;10.60;99.10;;;;;;5055149;28;20029;-32
2023/12/31 09:55:23;;;;;;;4.05;2.85;;;10.60;99.00;;;;;;5055250;28;20500;-32
2023/12/31 09:57:55;;;;;;;4.47;2.70;;;10.60;99.00;;;;;;5054997;28;20036;-32
2023/12/31 10:00:21;;;;;;;4.55;2.90;;;10.60;98.80;;;;;;5055124;28;20028;-32
2023/12/31 10:02:49;;;;;;;6.05;2.85;;;10.60;98.90;;;;;;5054923;28;20036;-32
2023/12/31 10:05:16;;;;;;;3.40;2.40;;;10.70;98.90;;;;;;5054640;28;20021;-32
2023/12/31 10:07:43;;;;;;;3.38;2.45;;;10.70;98.90;;;;;;5054841;28;20025;-33
2023/12/31 10:10:10;;;;;;;3.20;2.60;;;10.70;98.70;;;;;;5054840;28;20025;-32
2023/12/31 10:12:36;;;;;;;2.30;2.10;;;10.80;98.50;;;;;;5054782;28;20495;-31
2023/12/31 10:15:01;;;;;;;4.75;2.13;;;10.80;98.30;;;;;;5054718;28;20477;-37
2023/12/31 10:17:29;;;;;;;2.40;1.90;;;10.80;98.10;;;;;;5054703;28;20033;-35
2023/12/31 10:19:56;;;;;;;3.75;2.20;;;10.80;97.90;;;;;;5054841;28;20550;-32
2023/12/31 10:22:22;;;;;;;3.72;2.30;;;10.80;97.70;;;;;;5053915;28;20029;-32
2023/12/31 10:24:48;;;;;;;5.63;2.50;;;10.80;97.70;;;;;;5054306;28;20550;-34
2023/12/31 10:27:14;;;;;;;5.85;2.72;;;10.90;97.70;;;;;;5054552;28;20025;-35
2023/12/31 10:29:40;;;;;;;5.97;3.05;;;10.90;97.70;;;;;;5054495;28;20055;-37
2023/12/31 10:32:06;;;;;;;4.70;2.80;;;10.90;97.60;;;;;;5054384;28;20063;-33
2023/12/31 10:34:32;;;;;;;4.72;2.72;;;10.90;97.40;;;;;;5054003;28;20082;-32
2023/12/31 10:37:03;;;;;;;4.72;2.47;;;10.80;97.30;;;;;;5053064;28;20115;-33
2023/12/31 10:39:32;;;;;;;4.97;2.47;;;10.80;97.10;;;;;;5054191;28;20021;-35
2023/12/31 10:42:03;;;;;;;3.90;2.25;;;10.90;97.20;;;;;;5054458;28;20040;-36
2023/12/31 10:44:35;;;;;;;4.22;2.20;;;10.90;97.20;;;;;;5054373;28;20112;-36
2023/12/31 10:47:07;;;;;;;2.30;1.98;;;10.90;97.00;;;;;;5052934;28;20028;-36
2023/12/31 10:49:34;;;;;;;2.90;1.87;;;10.90;96.90;;;;;;5054286;28;20021;-34
2023/12/31 10:52:04;;;;;;;2.05;1.65;;;10.90;96.80;;;;;;5054029;28;20075;-33
2023/12/31 10:54:47;;;;;;;2.60;1.70;;;10.90;96.60;;;;;;5053952;28;20107;-35
2023/12/31 10:57:14;;;;;;;1.50;1.40;;;10.90;96.50;;;;;;5054436;28;20032;-37
2023/12/31 10:59:44;;;;;;;2.45;1.80;;;11.00;96.40;;;;;;5054209;28;20021;-38
2023/12/31 11:02:18;;;;;;;2.05;1.52;;;11.00;96.20;;;;;;5053439;28;20032;-35
2023/12/31 11:04:45;;;;;;;2.13;1.48;;;11.00;96.00;;;;;;5053970;28;20112;-37
2023/12/31 11:07:14;;;;;;;2.10;1.40;;;11.00;95.80;;;;;;5054105;28;20021;-33
2023/12/31 11:09:41;;;;;;;2.33;1.85;;;11.00;95.60;;;;;;5035871;28;20020;-33
2023/12/31 11:12:08;;;;;;;2.67;1.58;;;11.00;95.40;;;;;;5052523;28;20036;-36
2023/12/31 11:14:37;;;;;;;3.10;2.08;;;11.00;95.30;;;;;;5053982;28;20025;-32
2023/12/31 11:17:24;;;;;;;4.30;2.42;;;11.00;95.10;;;;;;5053620;28;20029;-33
2023/12/31 11:20:18;;;;;;;4.22;2.30;;;10.90;95.10;;;;;;5052102;28;20371;-35
2023/12/31 11:22:55;;;;;;;3.72;2.20;;;10.80;94.90;;;;;;5053557;28;20517;-32
2023/12/31 11:25:21;;;;;;;2.70;1.70;;;10.80;95.10;;;;;;5053428;28;20392;-32
2023/12/31 11:27:50;;;;;;;2.80;1.60;;;10.80;95.20;;;;;;5053576;28;20374;-33
2023/12/31 11:30:49;;;;;;;3.15;1.67;;;10.80;95.40;;;;;;5053745;28;20025;-36
2023/12/31 11:33:19;;;;;;;3.53;1.80;;;10.90;95.30;;;;;;5053213;28;20045;-33
2023/12/31 11:35:46;;;;;;;3.63;1.50;;;10.90;95.30;;;;;;5053220;28;20048;-33
2023/12/31 11:38:12;;;;;;;3.22;1.83;;;10.90;95.30;;;;;;5053543;28;20462;-34
2023/12/31 11:40:39;;;;;;;2.45;1.55;;;10.90;94.90;;;;;;5053525;28;20587;-34
2023/12/31 11:43:13;;;;;;;2.83;1.60;;;10.90;94.80;;;;;;5053079;28;20013;-32
2023/12/31 11:45:42;;;;;;;2.63;1.50;;;10.90;94.80;;;;;;5052176;28;20388;-35
2023/12/31 11:48:20;;;;;;;2.50;1.50;;;10.90;94.80;;;;;;5053336;28;20554;-35
2023/12/31 11:50:50;;;;;;;1.90;1.02;;;10.90;94.70;;;;;;5053049;28;20029;-35
2023/12/31 11:53:15;;;;;;;1.98;1.10;;;10.90;94.60;;;;;;5053051;28;20024;-33
2023/12/31 11:55:42;;;;;;;1.83;1.08;;;10.90;94.30;;;;;;5052770;28;20029;-34
2023/12/31 11:58:08;;;;;;;2.10;1.20;;;10.80;94.00;;;;;;5053085;28;20470;-38
2023/12/31 12:00:35;;;;;;;1.83;1.15;;;10.80;94.00;;;;;;5052802;28;20115;-35
2023/12/31 12:03:05;;;;;;;3.22;1.30;;;10.80;94.00;;;;;;5052806;28;20393;-32
2023/12/31 12:05:31;;;;;;;3.00;1.20;;;10.80;93.80;;;;;;5051241;28;20104;-33
2023/12/31 12:07:58;;;;;;;2.53;1.08;;;10.80;93.00;;;;;;5052738;28;20100;-34
2023/12/31 12:10:25;;;;;;;1.05;0.80;;;10.80;92.50;;;;;;5053056;28;20933;-33
2023/12/31 12:12:56;;;;;;;2.78;0.90;;;10.70;92.40;;;;;;5052596;28;20021;-33
2023/12/31 12:15:21;;;;;;;3.35;1.17;;;10.60;92.30;;;;;;5052553;28;20032;-35
2023/12/31 12:17:48;;;;;;;2.05;0.90;;;10.60;92.40;;;;;;5052520;28;20021;-32
2023/12/31 12:20:13;;;;;;;1.73;0.95;;;10.50;92.40;;;;;;5051308;28;20117;-32
2023/12/31 12:22:39;;;;;;;3.45;1.67;;;10.50;92.50;;;;;;5052204;28;20115;-36
2023/12/31 12:25:05;;;;;;;2.20;1.40;;;10.50;92.60;;;;;;5052588;28;20021;-34
2023/12/31 12:27:35;;;;;;;5.55;1.88;;;10.50;92.50;;;;;;5050870;28;20025;-32
2023/12/31 12:30:00;;;;;;;5.78;2.30;;;10.40;92.30;;;;;;5052545;28;20025;-33
2023/12/31 12:32:26;;;;;;;3.20;2.13;;;10.50;92.50;;;;;;5052096;28;20043;-32
2023/12/31 12:34:52;;;;;;;5.28;2.20;;;10.50;92.50;;;;;;5052355;28;20127;-34
2023/12/31 12:37:18;;;;;;;4.63;2.35;;;10.60;92.40;;;;;;5050760;28;20051;-31
2023/12/31 12:39:43;;;;;;;3.53;2.20;;;10.60;92.40;;;;;;5034459;28;20131;-35
2023/12/31 12:42:09;;;;;;;5.10;2.42;;;10.60;92.00;;;;;;5052357;28;20556;-39
2023/12/31 12:44:36;;;;;;;5.00;2.42;;;10.60;92.10;;;;;;5051957;28;20048;-36
2023/12/31 12:47:03;;;;;;;4.47;2.65;;;10.70;92.20;;;;;;5051955;28;20358;-33
2023/12/31 12:49:28;;;;;;;3.50;2.13;;;10.70;92.00;;;;;;5052173;28;20028;-38